sensor_id;sensor_type;location;lat;lon;timestamp;P1;durP1;ratioP1;P2;durP2;ratioP2
53718;SDS011;39616;48.872;9.390;2023-07-29T00:01:35;1.10;;;0.85;;
53718;SDS011;39616;48.872;9.390;2023-07-29T00:04:05;5.53;;;0.90;;
53718;SDS011;39616;48.872;9.390;2023-07-29T00:06:36;1.83;;;0.80;;
53718;SDS011;39616;48.872;9.390;2023-07-29T00:09:06;3.03;;;1.00;;
53718;SDS011;39616;48.872;9.390;2023-07-29T00:11:37;1.73;;;0.70;;
53718;SDS011;39616;48.872;9.390;2023-07-29T00:14:07;1.35;;;0.80;;
53718;SDS011;39616;48.872;9.390;2023-07-29T00:16:37;3.50;;;1.13;;
53718;SDS011;39616;48.872;9.390;2023-07-29T00:19:07;2.60;;;0.85;;
53718;SDS011;39616;48.872;9.390;2023-07-29T00:21:38;1.80;;;0.70;;
53718;SDS011;39616;48.872;9.390;2023-07-29T00:24:08;0.90;;;0.80;;
53718;SDS011;39616;48.872;9.390;2023-07-29T00:26:38;1.08;;;0.68;;
53718;SDS011;39616;48.872;9.390;2023-07-29T00:29:09;1.20;;;0.80;;
53718;SDS011;39616;48.872;9.390;2023-07-29T00:31:39;2.03;;;0.70;;
53718;SDS011;39616;48.872;9.390;2023-07-29T00:34:09;1.23;;;0.75;;
53718;SDS011;39616;48.872;9.390;2023-07-29T00:36:40;1.30;;;0.85;;
53718;SDS011;39616;48.872;9.390;2023-07-29T00:39:10;2.83;;;1.00;;
53718;SDS011;39616;48.872;9.390;2023-07-29T00:41:40;0.70;;;0.70;;
53718;SDS011;39616;48.872;9.390;2023-07-29T00:44:10;0.70;;;0.70;;
53718;SDS011;39616;48.872;9.390;2023-07-29T00:46:41;0.88;;;0.80;;
53718;SDS011;39616;48.872;9.390;2023-07-29T00:49:12;0.70;;;0.70;;
53718;SDS011;39616;48.872;9.390;2023-07-29T00:51:42;3.28;;;0.75;;
53718;SDS011;39616;48.872;9.390;2023-07-29T00:54:13;0.80;;;0.77;;
53718;SDS011;39616;48.872;9.390;2023-07-29T00:56:43;1.73;;;0.80;;
53718;SDS011;39616;48.872;9.390;2023-07-29T00:59:13;1.17;;;0.70;;
53718;SDS011;39616;48.872;9.390;2023-07-29T01:01:44;2.95;;;0.80;;
53718;SDS011;39616;48.872;9.390;2023-07-29T01:04:14;0.70;;;0.65;;
53718;SDS011;39616;48.872;9.390;2023-07-29T01:06:52;0.68;;;0.60;;
53718;SDS011;39616;48.872;9.390;2023-07-29T01:12:42;1.08;;;0.70;;
53718;SDS011;39616;48.872;9.390;2023-07-29T01:15:25;1.65;;;0.70;;
53718;SDS011;39616;48.872;9.390;2023-07-29T01:18:05;0.75;;;0.63;;
53718;SDS011;39616;48.872;9.390;2023-07-29T01:20:39;0.55;;;0.52;;
53718;SDS011;39616;48.872;9.390;2023-07-29T01:23:12;2.08;;;0.70;;
53718;SDS011;39616;48.872;9.390;2023-07-29T01:25:42;1.40;;;0.75;;
53718;SDS011;39616;48.872;9.390;2023-07-29T01:28:13;1.55;;;0.90;;
53718;SDS011;39616;48.872;9.390;2023-07-29T01:30:43;2.75;;;0.70;;
53718;SDS011;39616;48.872;9.390;2023-07-29T01:33:20;4.15;;;0.80;;
53718;SDS011;39616;48.872;9.390;2023-07-29T01:35:58;1.52;;;0.73;;
53718;SDS011;39616;48.872;9.390;2023-07-29T01:38:33;2.15;;;0.85;;
53718;SDS011;39616;48.872;9.390;2023-07-29T01:41:06;3.03;;;0.70;;
53718;SDS011;39616;48.872;9.390;2023-07-29T01:43:38;2.35;;;0.80;;
53718;SDS011;39616;48.872;9.390;2023-07-29T01:46:13;1.13;;;1.00;;
53718;SDS011;39616;48.872;9.390;2023-07-29T01:48:44;0.77;;;0.75;;
53718;SDS011;39616;48.872;9.390;2023-07-29T01:51:14;1.25;;;0.73;;
53718;SDS011;39616;48.872;9.390;2023-07-29T01:53:45;1.35;;;0.80;;
53718;SDS011;39616;48.872;9.390;2023-07-29T01:56:15;2.03;;;0.88;;
53718;SDS011;39616;48.872;9.390;2023-07-29T01:58:45;1.73;;;0.70;;
53718;SDS011;39616;48.872;9.390;2023-07-29T02:01:16;2.65;;;0.82;;
53718;SDS011;39616;48.872;9.390;2023-07-29T02:03:46;2.65;;;0.85;;
53718;SDS011;39616;48.872;9.390;2023-07-29T02:06:16;1.23;;;0.82;;
53718;SDS011;39616;48.872;9.390;2023-07-29T02:08:47;0.90;;;0.80;;
53718;SDS011;39616;48.872;9.390;2023-07-29T02:11:17;1.23;;;0.88;;
53718;SDS011;39616;48.872;9.390;2023-07-29T02:13:50;0.80;;;0.80;;
53718;SDS011;39616;48.872;9.390;2023-07-29T02:16:20;2.22;;;0.80;;
53718;SDS011;39616;48.872;9.390;2023-07-29T02:18:52;2.10;;;0.70;;
53718;SDS011;39616;48.872;9.390;2023-07-29T02:21:22;3.42;;;0.93;;
53718;SDS011;39616;48.872;9.390;2023-07-29T02:23:53;2.30;;;0.80;;
53718;SDS011;39616;48.872;9.390;2023-07-29T02:26:23;1.50;;;0.70;;
53718;SDS011;39616;48.872;9.390;2023-07-29T02:28:53;0.73;;;0.73;;
53718;SDS011;39616;48.872;9.390;2023-07-29T02:31:24;0.50;;;0.50;;
53718;SDS011;39616;48.872;9.390;2023-07-29T02:33:55;1.88;;;0.70;;
53718;SDS011;39616;48.872;9.390;2023-07-29T02:36:25;3.30;;;2.42;;
53718;SDS011;39616;48.872;9.390;2023-07-29T02:38:56;3.83;;;1.92;;
53718;SDS011;39616;48.872;9.390;2023-07-29T02:41:26;2.13;;;1.00;;
53718;SDS011;39616;48.872;9.390;2023-07-29T02:43:56;2.88;;;0.90;;
53718;SDS011;39616;48.872;9.390;2023-07-29T02:46:27;1.63;;;0.70;;
53718;SDS011;39616;48.872;9.390;2023-07-29T02:48:57;1.83;;;0.70;;
53718;SDS011;39616;48.872;9.390;2023-07-29T02:51:27;1.73;;;0.70;;
53718;SDS011;39616;48.872;9.390;2023-07-29T02:53:57;1.42;;;0.63;;
53718;SDS011;39616;48.872;9.390;2023-07-29T02:56:28;0.77;;;0.77;;
53718;SDS011;39616;48.872;9.390;2023-07-29T02:58:58;4.45;;;0.98;;
53718;SDS011;39616;48.872;9.390;2023-07-29T03:01:29;0.70;;;0.70;;
53718;SDS011;39616;48.872;9.390;2023-07-29T03:03:59;0.93;;;0.73;;
53718;SDS011;39616;48.872;9.390;2023-07-29T03:06:30;0.70;;;0.70;;
53718;SDS011;39616;48.872;9.390;2023-07-29T03:09:01;1.05;;;0.70;;
53718;SDS011;39616;48.872;9.390;2023-07-29T03:11:31;1.23;;;0.70;;
53718;SDS011;39616;48.872;9.390;2023-07-29T03:14:01;0.80;;;0.75;;
53718;SDS011;39616;48.872;9.390;2023-07-29T03:16:32;1.40;;;0.50;;
53718;SDS011;39616;48.872;9.390;2023-07-29T03:19:02;4.05;;;0.80;;
53718;SDS011;39616;48.872;9.390;2023-07-29T03:21:32;1.48;;;0.70;;
53718;SDS011;39616;48.872;9.390;2023-07-29T03:24:02;1.63;;;0.73;;
53718;SDS011;39616;48.872;9.390;2023-07-29T03:26:33;0.80;;;0.70;;
53718;SDS011;39616;48.872;9.390;2023-07-29T03:29:03;1.95;;;0.73;;
53718;SDS011;39616;48.872;9.390;2023-07-29T03:31:33;0.80;;;0.68;;
53718;SDS011;39616;48.872;9.390;2023-07-29T03:34:04;1.90;;;0.77;;
53718;SDS011;39616;48.872;9.390;2023-07-29T03:36:34;2.30;;;0.70;;
53718;SDS011;39616;48.872;9.390;2023-07-29T03:39:04;0.93;;;0.65;;
53718;SDS011;39616;48.872;9.390;2023-07-29T03:41:35;2.97;;;0.73;;
53718;SDS011;39616;48.872;9.390;2023-07-29T03:44:05;2.78;;;0.60;;
53718;SDS011;39616;48.872;9.390;2023-07-29T03:46:35;1.83;;;0.75;;
53718;SDS011;39616;48.872;9.390;2023-07-29T03:49:06;1.20;;;0.70;;
53718;SDS011;39616;48.872;9.390;2023-07-29T03:51:36;2.60;;;0.80;;
53718;SDS011;39616;48.872;9.390;2023-07-29T03:54:06;1.08;;;0.80;;
53718;SDS011;39616;48.872;9.390;2023-07-29T03:56:36;0.85;;;0.60;;
53718;SDS011;39616;48.872;9.390;2023-07-29T03:59:08;1.00;;;0.60;;
53718;SDS011;39616;48.872;9.390;2023-07-29T04:01:38;1.40;;;0.70;;
53718;SDS011;39616;48.872;9.390;2023-07-29T04:04:08;3.60;;;0.77;;
53718;SDS011;39616;48.872;9.390;2023-07-29T04:06:39;1.02;;;0.80;;
53718;SDS011;39616;48.872;9.390;2023-07-29T04:09:09;0.82;;;0.70;;
53718;SDS011;39616;48.872;9.390;2023-07-29T04:11:39;2.75;;;1.00;;
53718;SDS011;39616;48.872;9.390;2023-07-29T04:14:10;0.70;;;0.70;;
53718;SDS011;39616;48.872;9.390;2023-07-29T04:16:40;1.83;;;0.70;;
53718;SDS011;39616;48.872;9.390;2023-07-29T04:19:10;2.40;;;0.90;;
53718;SDS011;39616;48.872;9.390;2023-07-29T04:21:41;2.92;;;1.00;;
53718;SDS011;39616;48.872;9.390;2023-07-29T04:24:11;2.72;;;0.93;;
53718;SDS011;39616;48.872;9.390;2023-07-29T04:26:41;5.15;;;1.38;;
53718;SDS011;39616;48.872;9.390;2023-07-29T04:29:12;4.15;;;1.13;;
53718;SDS011;39616;48.872;9.390;2023-07-29T04:31:42;3.83;;;1.13;;
53718;SDS011;39616;48.872;9.390;2023-07-29T04:34:12;3.03;;;1.20;;
53718;SDS011;39616;48.872;9.390;2023-07-29T04:36:42;5.28;;;1.40;;
53718;SDS011;39616;48.872;9.390;2023-07-29T04:39:13;1.73;;;1.40;;
53718;SDS011;39616;48.872;9.390;2023-07-29T04:41:43;2.88;;;1.15;;
53718;SDS011;39616;48.872;9.390;2023-07-29T04:44:13;4.60;;;1.25;;
53718;SDS011;39616;48.872;9.390;2023-07-29T04:46:44;3.72;;;1.70;;
53718;SDS011;39616;48.872;9.390;2023-07-29T04:49:14;5.80;;;1.83;;
53718;SDS011;39616;48.872;9.390;2023-07-29T04:51:44;2.95;;;1.60;;
53718;SDS011;39616;48.872;9.390;2023-07-29T04:54:15;2.53;;;1.45;;
53718;SDS011;39616;48.872;9.390;2023-07-29T04:56:45;3.67;;;1.40;;
53718;SDS011;39616;48.872;9.390;2023-07-29T04:59:15;2.53;;;1.27;;
53718;SDS011;39616;48.872;9.390;2023-07-29T05:01:46;5.25;;;1.45;;
53718;SDS011;39616;48.872;9.390;2023-07-29T05:04:17;3.17;;;1.42;;
53718;SDS011;39616;48.872;9.390;2023-07-29T05:06:47;4.13;;;1.58;;
53718;SDS011;39616;48.872;9.390;2023-07-29T05:09:18;4.30;;;1.58;;
53718;SDS011;39616;48.872;9.390;2023-07-29T05:11:49;5.43;;;2.10;;
53718;SDS011;39616;48.872;9.390;2023-07-29T05:14:20;2.78;;;1.40;;
53718;SDS011;39616;48.872;9.390;2023-07-29T05:16:50;1.90;;;1.45;;
53718;SDS011;39616;48.872;9.390;2023-07-29T05:19:21;6.18;;;1.77;;
53718;SDS011;39616;48.872;9.390;2023-07-29T05:21:51;2.30;;;1.30;;
53718;SDS011;39616;48.872;9.390;2023-07-29T05:24:21;2.40;;;1.35;;
53718;SDS011;39616;48.872;9.390;2023-07-29T05:26:53;4.85;;;1.27;;
53718;SDS011;39616;48.872;9.390;2023-07-29T05:29:23;4.07;;;1.55;;
53718;SDS011;39616;48.872;9.390;2023-07-29T05:31:53;8.05;;;1.40;;
53718;SDS011;39616;48.872;9.390;2023-07-29T05:34:24;2.80;;;1.73;;
53718;SDS011;39616;48.872;9.390;2023-07-29T05:36:54;5.03;;;2.00;;
53718;SDS011;39616;48.872;9.390;2023-07-29T05:39:24;2.35;;;1.73;;
53718;SDS011;39616;48.872;9.390;2023-07-29T05:41:55;4.15;;;1.30;;
53718;SDS011;39616;48.872;9.390;2023-07-29T05:44:25;2.72;;;1.30;;
53718;SDS011;39616;48.872;9.390;2023-07-29T05:46:55;3.03;;;1.20;;
53718;SDS011;39616;48.872;9.390;2023-07-29T05:49:26;1.70;;;1.20;;
53718;SDS011;39616;48.872;9.390;2023-07-29T05:51:57;2.97;;;1.60;;
53718;SDS011;39616;48.872;9.390;2023-07-29T05:54:27;3.55;;;1.20;;
53718;SDS011;39616;48.872;9.390;2023-07-29T05:56:57;1.40;;;1.30;;
53718;SDS011;39616;48.872;9.390;2023-07-29T05:59:27;4.78;;;0.98;;
53718;SDS011;39616;48.872;9.390;2023-07-29T06:01:59;2.25;;;0.95;;
53718;SDS011;39616;48.872;9.390;2023-07-29T06:04:29;2.53;;;1.00;;
53718;SDS011;39616;48.872;9.390;2023-07-29T06:06:59;2.75;;;1.00;;
53718;SDS011;39616;48.872;9.390;2023-07-29T06:09:30;1.60;;;1.20;;
53718;SDS011;39616;48.872;9.390;2023-07-29T06:12:00;8.48;;;1.25;;
53718;SDS011;39616;48.872;9.390;2023-07-29T06:14:30;2.83;;;1.10;;
53718;SDS011;39616;48.872;9.390;2023-07-29T06:17:01;2.75;;;0.98;;
53718;SDS011;39616;48.872;9.390;2023-07-29T06:19:31;2.75;;;0.80;;
53718;SDS011;39616;48.872;9.390;2023-07-29T06:22:02;1.70;;;0.80;;
53718;SDS011;39616;48.872;9.390;2023-07-29T06:24:32;1.83;;;1.00;;
53718;SDS011;39616;48.872;9.390;2023-07-29T06:27:05;3.85;;;0.80;;
53718;SDS011;39616;48.872;9.390;2023-07-29T06:29:36;1.38;;;0.80;;
53718;SDS011;39616;48.872;9.390;2023-07-29T06:32:06;1.00;;;0.90;;
53718;SDS011;39616;48.872;9.390;2023-07-29T06:34:37;1.52;;;0.75;;
53718;SDS011;39616;48.872;9.390;2023-07-29T06:37:07;1.25;;;0.80;;
53718;SDS011;39616;48.872;9.390;2023-07-29T06:39:37;1.30;;;0.80;;
53718;SDS011;39616;48.872;9.390;2023-07-29T06:42:07;0.68;;;0.68;;
53718;SDS011;39616;48.872;9.390;2023-07-29T06:44:38;4.82;;;1.00;;
53718;SDS011;39616;48.872;9.390;2023-07-29T06:47:08;1.70;;;0.80;;
53718;SDS011;39616;48.872;9.390;2023-07-29T06:49:38;0.60;;;0.60;;
53718;SDS011;39616;48.872;9.390;2023-07-29T06:52:09;2.45;;;0.70;;
53718;SDS011;39616;48.872;9.390;2023-07-29T06:54:39;0.80;;;0.70;;
53718;SDS011;39616;48.872;9.390;2023-07-29T06:57:09;1.33;;;0.60;;
53718;SDS011;39616;48.872;9.390;2023-07-29T06:59:40;4.00;;;0.65;;
53718;SDS011;39616;48.872;9.390;2023-07-29T07:02:10;4.97;;;0.80;;
53718;SDS011;39616;48.872;9.390;2023-07-29T07:04:40;0.98;;;0.70;;
53718;SDS011;39616;48.872;9.390;2023-07-29T07:07:11;2.00;;;0.90;;
53718;SDS011;39616;48.872;9.390;2023-07-29T07:09:41;1.42;;;0.82;;
53718;SDS011;39616;48.872;9.390;2023-07-29T07:12:11;1.50;;;0.75;;
53718;SDS011;39616;48.872;9.390;2023-07-29T07:14:42;1.20;;;0.90;;
53718;SDS011;39616;48.872;9.390;2023-07-29T07:17:12;2.85;;;1.10;;
53718;SDS011;39616;48.872;9.390;2023-07-29T07:19:42;1.92;;;0.82;;
53718;SDS011;39616;48.872;9.390;2023-07-29T07:22:12;1.95;;;1.05;;
53718;SDS011;39616;48.872;9.390;2023-07-29T07:24:44;2.13;;;1.00;;
53718;SDS011;39616;48.872;9.390;2023-07-29T07:27:14;2.00;;;1.08;;
53718;SDS011;39616;48.872;9.390;2023-07-29T07:29:45;5.35;;;1.10;;
53718;SDS011;39616;48.872;9.390;2023-07-29T07:32:15;2.65;;;1.20;;
53718;SDS011;39616;48.872;9.390;2023-07-29T07:34:45;5.40;;;1.35;;
53718;SDS011;39616;48.872;9.390;2023-07-29T07:37:16;3.42;;;1.10;;
53718;SDS011;39616;48.872;9.390;2023-07-29T07:39:46;3.08;;;1.00;;
53718;SDS011;39616;48.872;9.390;2023-07-29T07:42:16;1.50;;;1.20;;
53718;SDS011;39616;48.872;9.390;2023-07-29T07:44:47;3.63;;;1.23;;
53718;SDS011;39616;48.872;9.390;2023-07-29T07:47:17;5.50;;;1.10;;
53718;SDS011;39616;48.872;9.390;2023-07-29T07:49:47;2.60;;;1.00;;
53718;SDS011;39616;48.872;9.390;2023-07-29T07:52:20;1.52;;;1.10;;
53718;SDS011;39616;48.872;9.390;2023-07-29T07:54:54;2.25;;;1.10;;
53718;SDS011;39616;48.872;9.390;2023-07-29T07:57:24;2.45;;;1.20;;
53718;SDS011;39616;48.872;9.390;2023-07-29T07:59:55;2.53;;;1.20;;
53718;SDS011;39616;48.872;9.390;2023-07-29T08:02:25;2.85;;;1.17;;
53718;SDS011;39616;48.872;9.390;2023-07-29T08:04:55;2.58;;;1.20;;
53718;SDS011;39616;48.872;9.390;2023-07-29T08:07:25;4.93;;;1.27;;
53718;SDS011;39616;48.872;9.390;2023-07-29T08:09:56;1.55;;;1.13;;
53718;SDS011;39616;48.872;9.390;2023-07-29T08:12:26;2.08;;;1.00;;
53718;SDS011;39616;48.872;9.390;2023-07-29T08:14:56;2.60;;;1.00;;
53718;SDS011;39616;48.872;9.390;2023-07-29T08:17:27;0.90;;;0.80;;
53718;SDS011;39616;48.872;9.390;2023-07-29T08:19:57;2.50;;;1.00;;
53718;SDS011;39616;48.872;9.390;2023-07-29T08:22:27;1.15;;;0.80;;
53718;SDS011;39616;48.872;9.390;2023-07-29T08:24:57;1.67;;;1.02;;
53718;SDS011;39616;48.872;9.390;2023-07-29T08:27:28;1.95;;;0.85;;
53718;SDS011;39616;48.872;9.390;2023-07-29T08:29:58;2.40;;;0.85;;
53718;SDS011;39616;48.872;9.390;2023-07-29T08:32:28;1.52;;;0.90;;
53718;SDS011;39616;48.872;9.390;2023-07-29T08:34:59;0.82;;;0.57;;
53718;SDS011;39616;48.872;9.390;2023-07-29T08:37:29;0.85;;;0.60;;
53718;SDS011;39616;48.872;9.390;2023-07-29T08:39:59;1.38;;;0.63;;
53718;SDS011;39616;48.872;9.390;2023-07-29T08:42:31;1.88;;;0.60;;
53718;SDS011;39616;48.872;9.390;2023-07-29T08:45:06;2.25;;;0.65;;
53718;SDS011;39616;48.872;9.390;2023-07-29T08:47:37;0.65;;;0.47;;
53718;SDS011;39616;48.872;9.390;2023-07-29T08:50:08;1.55;;;0.60;;
53718;SDS011;39616;48.872;9.390;2023-07-29T08:52:39;0.57;;;0.50;;
53718;SDS011;39616;48.872;9.390;2023-07-29T08:55:12;1.40;;;0.60;;
53718;SDS011;39616;48.872;9.390;2023-07-29T08:57:42;2.25;;;0.70;;
53718;SDS011;39616;48.872;9.390;2023-07-29T09:00:13;3.13;;;0.60;;
53718;SDS011;39616;48.872;9.390;2023-07-29T09:02:44;2.85;;;0.70;;
53718;SDS011;39616;48.872;9.390;2023-07-29T09:05:14;0.98;;;0.60;;
53718;SDS011;39616;48.872;9.390;2023-07-29T09:07:45;2.25;;;0.50;;
53718;SDS011;39616;48.872;9.390;2023-07-29T09:10:16;1.92;;;0.68;;
53718;SDS011;39616;48.872;9.390;2023-07-29T09:12:46;0.90;;;0.47;;
53718;SDS011;39616;48.872;9.390;2023-07-29T09:15:26;1.90;;;0.60;;
53718;SDS011;39616;48.872;9.390;2023-07-29T09:17:58;1.48;;;0.50;;
53718;SDS011;39616;48.872;9.390;2023-07-29T09:20:29;2.50;;;0.60;;
53718;SDS011;39616;48.872;9.390;2023-07-29T09:22:59;0.60;;;0.47;;
53718;SDS011;39616;48.872;9.390;2023-07-29T09:25:30;0.60;;;0.50;;
53718;SDS011;39616;48.872;9.390;2023-07-29T09:28:01;2.35;;;0.70;;
53718;SDS011;39616;48.872;9.390;2023-07-29T09:30:32;0.57;;;0.45;;
53718;SDS011;39616;48.872;9.390;2023-07-29T09:33:02;1.88;;;0.60;;
53718;SDS011;39616;48.872;9.390;2023-07-29T09:35:33;1.58;;;0.50;;
53718;SDS011;39616;48.872;9.390;2023-07-29T09:38:05;1.45;;;0.52;;
53718;SDS011;39616;48.872;9.390;2023-07-29T09:40:37;1.30;;;0.43;;
53718;SDS011;39616;48.872;9.390;2023-07-29T09:43:09;0.80;;;0.50;;
53718;SDS011;39616;48.872;9.390;2023-07-29T09:45:39;0.65;;;0.63;;
53718;SDS011;39616;48.872;9.390;2023-07-29T09:48:10;4.88;;;0.80;;
53718;SDS011;39616;48.872;9.390;2023-07-29T09:50:41;1.45;;;0.80;;
53718;SDS011;39616;48.872;9.390;2023-07-29T09:53:11;0.90;;;0.60;;
53718;SDS011;39616;48.872;9.390;2023-07-29T09:55:45;1.27;;;0.50;;
53718;SDS011;39616;48.872;9.390;2023-07-29T09:58:19;2.25;;;0.60;;
53718;SDS011;39616;48.872;9.390;2023-07-29T10:00:55;2.38;;;0.75;;
53718;SDS011;39616;48.872;9.390;2023-07-29T10:03:26;0.52;;;0.52;;
53718;SDS011;39616;48.872;9.390;2023-07-29T10:05:59;2.05;;;0.70;;
53718;SDS011;39616;48.872;9.390;2023-07-29T10:08:32;1.63;;;0.60;;
53718;SDS011;39616;48.872;9.390;2023-07-29T10:11:09;0.60;;;0.60;;
53718;SDS011;39616;48.872;9.390;2023-07-29T10:13:40;0.60;;;0.60;;
53718;SDS011;39616;48.872;9.390;2023-07-29T10:16:10;2.42;;;0.40;;
53718;SDS011;39616;48.872;9.390;2023-07-29T10:18:41;0.55;;;0.20;;
53718;SDS011;39616;48.872;9.390;2023-07-29T10:21:12;2.15;;;0.30;;
53718;SDS011;39616;48.872;9.390;2023-07-29T10:23:46;2.38;;;0.40;;
53718;SDS011;39616;48.872;9.390;2023-07-29T10:26:20;2.75;;;0.45;;
53718;SDS011;39616;48.872;9.390;2023-07-29T10:28:51;2.03;;;0.55;;
53718;SDS011;39616;48.872;9.390;2023-07-29T10:31:24;5.40;;;0.60;;
53718;SDS011;39616;48.872;9.390;2023-07-29T10:33:54;0.63;;;0.40;;
53718;SDS011;39616;48.872;9.390;2023-07-29T10:36:25;1.45;;;0.60;;
53718;SDS011;39616;48.872;9.390;2023-07-29T10:38:56;0.85;;;0.50;;
53718;SDS011;39616;48.872;9.390;2023-07-29T10:45:03;3.40;;;0.80;;
53718;SDS011;39616;48.872;9.390;2023-07-29T10:47:27;9.93;;;0.80;;
53718;SDS011;39616;48.872;9.390;2023-07-29T10:49:59;2.25;;;0.60;;
53718;SDS011;39616;48.872;9.390;2023-07-29T10:52:39;0.50;;;0.40;;
53718;SDS011;39616;48.872;9.390;2023-07-29T10:55:24;1.95;;;0.50;;
53718;SDS011;39616;48.872;9.390;2023-07-29T10:58:05;1.17;;;0.57;;
53718;SDS011;39616;48.872;9.390;2023-07-29T11:00:36;0.52;;;0.40;;
53718;SDS011;39616;48.872;9.390;2023-07-29T11:03:07;0.85;;;0.43;;
53718;SDS011;39616;48.872;9.390;2023-07-29T11:05:42;2.90;;;0.50;;
53718;SDS011;39616;48.872;9.390;2023-07-29T11:08:37;3.40;;;0.50;;
53718;SDS011;39616;48.872;9.390;2023-07-29T11:11:07;13.73;;;0.73;;
53718;SDS011;39616;48.872;9.390;2023-07-29T11:13:41;1.77;;;0.50;;
53718;SDS011;39616;48.872;9.390;2023-07-29T11:16:12;1.38;;;0.40;;
53718;SDS011;39616;48.872;9.390;2023-07-29T11:18:46;0.50;;;0.30;;
53718;SDS011;39616;48.872;9.390;2023-07-29T11:21:17;2.30;;;0.65;;
53718;SDS011;39616;48.872;9.390;2023-07-29T11:23:48;0.60;;;0.30;;
53718;SDS011;39616;48.872;9.390;2023-07-29T11:26:18;1.73;;;0.40;;
53718;SDS011;39616;48.872;9.390;2023-07-29T11:28:49;3.83;;;0.50;;
53718;SDS011;39616;48.872;9.390;2023-07-29T11:31:21;5.30;;;0.50;;
53718;SDS011;39616;48.872;9.390;2023-07-29T11:33:51;4.60;;;0.60;;
53718;SDS011;39616;48.872;9.390;2023-07-29T11:36:22;0.40;;;0.30;;
53718;SDS011;39616;48.872;9.390;2023-07-29T11:38:54;0.80;;;0.30;;
53718;SDS011;39616;48.872;9.390;2023-07-29T11:41:24;0.45;;;0.40;;
53718;SDS011;39616;48.872;9.390;2023-07-29T11:43:55;0.95;;;0.40;;
53718;SDS011;39616;48.872;9.390;2023-07-29T11:46:25;1.08;;;0.40;;
53718;SDS011;39616;48.872;9.390;2023-07-29T11:48:55;2.33;;;0.20;;
53718;SDS011;39616;48.872;9.390;2023-07-29T11:51:25;1.08;;;0.50;;
53718;SDS011;39616;48.872;9.390;2023-07-29T11:53:56;1.33;;;0.45;;
53718;SDS011;39616;48.872;9.390;2023-07-29T11:56:26;0.40;;;0.40;;
53718;SDS011;39616;48.872;9.390;2023-07-29T11:58:57;0.93;;;0.30;;
53718;SDS011;39616;48.872;9.390;2023-07-29T12:01:27;0.30;;;0.30;;
53718;SDS011;39616;48.872;9.390;2023-07-29T12:03:58;0.40;;;0.20;;
53718;SDS011;39616;48.872;9.390;2023-07-29T12:06:29;4.75;;;0.95;;
53718;SDS011;39616;48.872;9.390;2023-07-29T12:09:01;1.58;;;0.40;;
53718;SDS011;39616;48.872;9.390;2023-07-29T12:11:31;0.32;;;0.30;;
53718;SDS011;39616;48.872;9.390;2023-07-29T12:14:02;0.22;;;0.20;;
53718;SDS011;39616;48.872;9.390;2023-07-29T12:16:39;0.30;;;0.30;;
53718;SDS011;39616;48.872;9.390;2023-07-29T12:19:14;1.00;;;0.40;;
53718;SDS011;39616;48.872;9.390;2023-07-29T12:21:45;0.60;;;0.30;;
53718;SDS011;39616;48.872;9.390;2023-07-29T12:24:15;0.80;;;0.30;;
53718;SDS011;39616;48.872;9.390;2023-07-29T12:26:46;0.30;;;0.30;;
53718;SDS011;39616;48.872;9.390;2023-07-29T12:29:17;0.30;;;0.30;;
53718;SDS011;39616;48.872;9.390;2023-07-29T12:31:59;1.55;;;0.47;;
53718;SDS011;39616;48.872;9.390;2023-07-29T12:34:30;0.50;;;0.50;;
53718;SDS011;39616;48.872;9.390;2023-07-29T12:37:02;0.40;;;0.40;;
53718;SDS011;39616;48.872;9.390;2023-07-29T12:39:34;1.38;;;0.35;;
53718;SDS011;39616;48.872;9.390;2023-07-29T12:42:06;0.45;;;0.40;;
53718;SDS011;39616;48.872;9.390;2023-07-29T12:44:37;1.00;;;0.50;;
53718;SDS011;39616;48.872;9.390;2023-07-29T12:47:08;0.40;;;0.40;;
53718;SDS011;39616;48.872;9.390;2023-07-29T12:49:39;2.03;;;0.82;;
53718;SDS011;39616;48.872;9.390;2023-07-29T12:52:09;0.50;;;0.50;;
53718;SDS011;39616;48.872;9.390;2023-07-29T12:54:40;1.00;;;0.57;;
53718;SDS011;39616;48.872;9.390;2023-07-29T12:57:10;1.63;;;0.50;;
53718;SDS011;39616;48.872;9.390;2023-07-29T12:59:40;0.50;;;0.50;;
53718;SDS011;39616;48.872;9.390;2023-07-29T13:02:11;0.77;;;0.47;;
53718;SDS011;39616;48.872;9.390;2023-07-29T13:04:41;3.90;;;0.93;;
53718;SDS011;39616;48.872;9.390;2023-07-29T13:07:11;2.28;;;0.75;;
53718;SDS011;39616;48.872;9.390;2023-07-29T13:09:42;0.50;;;0.40;;
53718;SDS011;39616;48.872;9.390;2023-07-29T13:12:12;1.65;;;0.40;;
53718;SDS011;39616;48.872;9.390;2023-07-29T13:14:43;1.95;;;0.70;;
53718;SDS011;39616;48.872;9.390;2023-07-29T13:17:13;5.85;;;1.13;;
53718;SDS011;39616;48.872;9.390;2023-07-29T13:19:43;2.40;;;0.50;;
53718;SDS011;39616;48.872;9.390;2023-07-29T13:22:13;0.85;;;0.50;;
53718;SDS011;39616;48.872;9.390;2023-07-29T13:24:44;1.15;;;0.60;;
53718;SDS011;39616;48.872;9.390;2023-07-29T13:27:14;0.73;;;0.55;;
53718;SDS011;39616;48.872;9.390;2023-07-29T13:29:44;2.58;;;0.60;;
53718;SDS011;39616;48.872;9.390;2023-07-29T13:32:15;2.47;;;0.45;;
53718;SDS011;39616;48.872;9.390;2023-07-29T13:34:46;0.55;;;0.50;;
53718;SDS011;39616;48.872;9.390;2023-07-29T13:37:16;0.50;;;0.50;;
53718;SDS011;39616;48.872;9.390;2023-07-29T13:39:46;2.38;;;0.60;;
53718;SDS011;39616;48.872;9.390;2023-07-29T13:42:17;0.60;;;0.60;;
53718;SDS011;39616;48.872;9.390;2023-07-29T13:44:47;0.90;;;0.60;;
53718;SDS011;39616;48.872;9.390;2023-07-29T13:47:17;4.10;;;0.70;;
53718;SDS011;39616;48.872;9.390;2023-07-29T13:49:48;6.75;;;0.63;;
53718;SDS011;39616;48.872;9.390;2023-07-29T13:52:18;1.35;;;0.57;;
53718;SDS011;39616;48.872;9.390;2023-07-29T13:54:48;0.60;;;0.50;;
53718;SDS011;39616;48.872;9.390;2023-07-29T13:57:18;0.70;;;0.60;;
53718;SDS011;39616;48.872;9.390;2023-07-29T13:59:49;0.60;;;0.60;;
53718;SDS011;39616;48.872;9.390;2023-07-29T14:02:19;0.90;;;0.50;;
53718;SDS011;39616;48.872;9.390;2023-07-29T14:04:49;1.55;;;0.70;;
53718;SDS011;39616;48.872;9.390;2023-07-29T14:07:19;1.10;;;0.70;;
53718;SDS011;39616;48.872;9.390;2023-07-29T14:09:50;1.13;;;0.60;;
53718;SDS011;39616;48.872;9.390;2023-07-29T14:12:20;2.88;;;0.65;;
53718;SDS011;39616;48.872;9.390;2023-07-29T14:14:50;0.70;;;0.50;;
53718;SDS011;39616;48.872;9.390;2023-07-29T14:17:21;1.23;;;0.47;;
53718;SDS011;39616;48.872;9.390;2023-07-29T14:19:51;0.80;;;0.38;;
53718;SDS011;39616;48.872;9.390;2023-07-29T14:22:21;0.50;;;0.50;;
53718;SDS011;39616;48.872;9.390;2023-07-29T14:24:51;2.05;;;0.60;;
53718;SDS011;39616;48.872;9.390;2023-07-29T14:27:22;1.88;;;0.60;;
53718;SDS011;39616;48.872;9.390;2023-07-29T14:29:52;1.58;;;0.60;;
53718;SDS011;39616;48.872;9.390;2023-07-29T14:32:22;1.00;;;0.73;;
53718;SDS011;39616;48.872;9.390;2023-07-29T14:34:54;1.35;;;0.73;;
53718;SDS011;39616;48.872;9.390;2023-07-29T14:37:24;0.70;;;0.50;;
53718;SDS011;39616;48.872;9.390;2023-07-29T14:39:54;1.50;;;0.70;;
53718;SDS011;39616;48.872;9.390;2023-07-29T14:42:25;3.17;;;0.80;;
53718;SDS011;39616;48.872;9.390;2023-07-29T14:44:56;0.80;;;0.70;;
53718;SDS011;39616;48.872;9.390;2023-07-29T14:47:26;3.72;;;1.42;;
53718;SDS011;39616;48.872;9.390;2023-07-29T14:49:57;1.15;;;0.75;;
53718;SDS011;39616;48.872;9.390;2023-07-29T14:52:27;0.70;;;0.50;;
53718;SDS011;39616;48.872;9.390;2023-07-29T14:54:57;2.15;;;0.90;;
53718;SDS011;39616;48.872;9.390;2023-07-29T14:57:28;0.88;;;0.57;;
53718;SDS011;39616;48.872;9.390;2023-07-29T14:59:58;1.90;;;0.50;;
53718;SDS011;39616;48.872;9.390;2023-07-29T15:02:28;1.00;;;0.50;;
53718;SDS011;39616;48.872;9.390;2023-07-29T15:04:59;0.57;;;0.57;;
53718;SDS011;39616;48.872;9.390;2023-07-29T15:07:29;0.50;;;0.50;;
53718;SDS011;39616;48.872;9.390;2023-07-29T15:10:00;0.88;;;0.70;;
53718;SDS011;39616;48.872;9.390;2023-07-29T15:12:30;2.60;;;0.57;;
53718;SDS011;39616;48.872;9.390;2023-07-29T15:15:00;0.90;;;0.60;;
53718;SDS011;39616;48.872;9.390;2023-07-29T15:17:31;0.60;;;0.57;;